Time;durP1;ratioP1;P1;durP2;ratioP2;P2;SDS_P1;SDS_P2;PMS_P1;PMS_P2;Temp;Humidity;BMP_temperature;BMP_pressure;BME280_temperature;BME280_humidity;BME280_pressure;Samples;Min_cycle;Max_cycle;Signal;HPM_P1;HPM_P2
2023/04/12 00:01:55;;;;;;;23.67;17.35;;;11.70;99.90;;;;;;5013026;28;20701;-84
2023/04/12 00:04:48;;;;;;;27.05;17.38;;;11.50;99.90;;;;;;5034070;28;20229;-84
2023/04/12 00:07:38;;;;;;;22.23;16.63;;;11.60;99.90;;;;;;5023172;28;20225;-83
2023/04/12 00:10:27;;;;;;;22.70;17.95;;;11.60;99.90;;;;;;5030621;28;20683;-84
2023/04/12 00:13:16;;;;;;;25.10;17.25;;;11.50;99.90;;;;;;5048627;28;20276;-84
2023/04/12 00:16:06;;;;;;;21.95;17.50;;;11.60;99.90;;;;;;5024707;28;20218;-82
2023/04/12 00:18:56;;;;;;;23.95;18.10;;;11.60;99.90;;;;;;5051598;28;20222;-85
2023/04/12 00:21:46;;;;;;;23.48;17.90;;;11.50;99.90;;;;;;5061126;28;20302;-86
2023/04/12 00:24:35;;;;;;;22.45;17.80;;;11.50;99.90;;;;;;5031044;28;20244;-86
2023/04/12 00:27:24;;;;;;;20.20;16.95;;;11.60;99.90;;;;;;5028150;28;20229;-87
2023/04/12 00:30:13;;;;;;;20.63;15.80;;;11.60;99.90;;;;;;5037432;28;20225;-77
2023/04/12 00:33:03;;;;;;;17.60;14.50;;;11.40;99.90;;;;;;5036251;28;20700;-78
2023/04/12 00:35:52;;;;;;;18.30;15.48;;;11.30;99.90;;;;;;5038659;28;20232;-78
2023/04/12 00:38:44;;;;;;;20.40;16.00;;;11.20;99.90;;;;;;5038238;28;20231;-85
2023/04/12 00:41:36;;;;;;;18.85;15.35;;;11.30;99.90;;;;;;5027804;28;20233;-85
2023/04/12 00:44:25;;;;;;;20.63;15.18;;;11.20;99.90;;;;;;5022001;28;20412;-86
2023/04/12 00:47:15;;;;;;;19.40;14.63;;;11.10;99.90;;;;;;5021594;28;20225;-82
2023/04/12 00:50:05;;;;;;;18.38;13.93;;;11.00;99.90;;;;;;5019931;28;20230;-83
2023/04/12 00:52:57;;;;;;;17.83;13.88;;;11.00;99.90;;;;;;5038669;28;21024;-83
2023/04/12 00:55:48;;;;;;;16.45;13.20;;;11.00;99.90;;;;;;5025126;28;20225;-80
2023/04/12 00:58:37;;;;;;;19.02;13.93;;;11.00;99.90;;;;;;5033140;28;20228;-81
2023/04/12 01:01:27;;;;;;;17.60;13.98;;;11.00;99.90;;;;;;5023230;28;20244;-80
2023/04/12 01:04:17;;;;;;;16.83;13.60;;;11.00;99.90;;;;;;5018838;28;20270;-81
2023/04/12 01:07:15;;;;;;;18.13;14.05;;;11.00;99.90;;;;;;5033007;28;20238;-80
2023/04/12 01:10:11;;;;;;;18.55;13.88;;;11.00;99.90;;;;;;5014594;28;20268;-74
2023/04/12 01:13:10;;;;;;;18.08;14.77;;;11.00;99.90;;;;;;5011987;28;20229;-74
2023/04/12 01:16:10;;;;;;;19.27;15.02;;;10.90;99.90;;;;;;5009860;28;20756;-83
2023/04/12 01:19:02;;;;;;;19.10;15.98;;;10.90;99.90;;;;;;5038288;28;20217;-86
2023/04/12 01:22:01;;;;;;;22.40;15.30;;;10.90;99.90;;;;;;5037571;28;20232;-80
2023/04/12 01:25:15;;;;;;;18.88;15.02;;;10.90;99.90;;;;;;5018696;28;20238;-78
2023/04/12 01:28:07;;;;;;;23.27;16.15;;;10.90;99.90;;;;;;5041478;28;20232;-82
2023/04/12 01:30:56;;;;;;;19.27;14.60;;;10.80;99.90;;;;;;5040178;28;20703;-79
2023/04/12 01:33:47;;;;;;;19.45;15.20;;;10.90;99.90;;;;;;5038670;28;20306;-80
2023/04/12 01:36:39;;;;;;;18.83;15.73;;;11.00;99.90;;;;;;5020294;28;20236;-84
2023/04/12 01:39:29;;;;;;;18.75;14.48;;;10.90;99.90;;;;;;5014318;28;20288;-82
2023/04/12 01:42:19;;;;;;;18.20;14.48;;;10.90;99.90;;;;;;5020022;28;20212;-82
2023/04/12 01:45:10;;;;;;;17.30;14.40;;;11.00;99.90;;;;;;5027953;28;20898;-82
2023/04/12 01:48:00;;;;;;;16.63;14.25;;;11.10;99.90;;;;;;5024625;28;21158;-82
2023/04/12 01:50:58;;;;;;;16.25;12.95;;;11.00;99.90;;;;;;5023425;28;20668;-85
2023/04/12 01:53:54;;;;;;;14.15;12.27;;;11.10;99.90;;;;;;5024753;28;20362;-85
2023/04/12 01:56:48;;;;;;;13.40;11.48;;;11.00;99.90;;;;;;5041423;28;20317;-85
2023/04/12 01:59:42;;;;;;;11.63;10.07;;;11.20;99.90;;;;;;5038222;28;20221;-87
2023/04/12 02:02:35;;;;;;;12.85;10.25;;;11.20;99.90;;;;;;5036703;28;20247;-86
2023/04/12 02:05:24;;;;;;;12.32;9.95;;;11.10;99.90;;;;;;5017497;28;20229;-87
2023/04/12 02:08:14;;;;;;;13.00;9.93;;;11.00;99.90;;;;;;5017980;28;20248;-84
2023/04/12 02:11:08;;;;;;;13.80;9.85;;;11.10;99.90;;;;;;5038604;28;20311;-82
2023/04/12 02:13:57;;;;;;;10.45;9.23;;;11.00;99.90;;;;;;5016077;28;20697;-80
2023/04/12 02:16:49;;;;;;;11.18;9.60;;;11.00;99.90;;;;;;5040219;28;20232;-80
2023/04/12 02:19:39;;;;;;;14.30;9.63;;;11.00;99.90;;;;;;5039015;28;20233;-80
2023/04/12 02:22:29;;;;;;;11.60;9.50;;;10.90;99.90;;;;;;5030730;28;20213;-81
2023/04/12 02:25:18;;;;;;;12.35;9.93;;;11.00;99.90;;;;;;5039990;28;20232;-81
2023/04/12 02:28:07;;;;;;;12.25;10.00;;;11.00;99.90;;;;;;5022567;28;20234;-78
2023/04/12 02:30:56;;;;;;;11.80;10.57;;;11.00;99.90;;;;;;5018490;28;20237;-79
2023/04/12 02:33:45;;;;;;;13.20;10.57;;;10.90;99.90;;;;;;5011035;28;20233;-79
2023/04/12 02:36:36;;;;;;;14.32;10.63;;;10.90;99.90;;;;;;5038846;28;20236;-80
2023/04/12 02:39:28;;;;;;;15.93;12.00;;;10.90;99.90;;;;;;5051711;28;20231;-80
2023/04/12 02:42:18;;;;;;;14.23;12.30;;;10.80;99.90;;;;;;5036865;28;20229;-82
2023/04/12 02:45:10;;;;;;;13.93;12.00;;;11.00;99.90;;;;;;5022021;28;20272;-79
2023/04/12 02:48:01;;;;;;;14.90;11.77;;;11.00;99.90;;;;;;5032222;28;20691;-79
2023/04/12 02:50:50;;;;;;;16.40;12.50;;;11.10;99.90;;;;;;5030119;28;20243;-80
2023/04/12 02:53:44;;;;;;;16.10;12.18;;;11.00;99.90;;;;;;5014341;28;20221;-82
2023/04/12 02:56:37;;;;;;;15.38;12.77;;;10.80;99.90;;;;;;5031254;28;20232;-79
2023/04/12 02:59:43;;;;;;;17.65;12.73;;;10.90;99.90;;;;;;5026166;28;20232;-81
2023/04/12 03:02:36;;;;;;;23.05;13.02;;;11.10;99.90;;;;;;5039725;28;20233;-80
2023/04/12 03:05:28;;;;;;;16.63;12.95;;;11.10;99.90;;;;;;5024811;28;20290;-78
2023/04/12 03:08:17;;;;;;;15.45;12.57;;;11.00;99.90;;;;;;5021274;28;20700;-80
2023/04/12 03:11:14;;;;;;;17.27;13.32;;;11.00;99.90;;;;;;5042247;28;20224;-80
2023/04/12 03:14:03;;;;;;;16.52;13.20;;;11.00;99.90;;;;;;5024500;28;20241;-83
2023/04/12 03:16:52;;;;;;;18.13;13.40;;;11.10;99.90;;;;;;5028682;28;20237;-83
2023/04/12 03:19:41;;;;;;;16.33;12.75;;;11.20;99.90;;;;;;5015678;28;20237;-79
2023/04/12 03:22:30;;;;;;;17.33;13.25;;;11.10;99.90;;;;;;5031918;28;20229;-80
2023/04/12 03:25:20;;;;;;;17.33;13.50;;;11.20;99.90;;;;;;5017087;28;20258;-79
2023/04/12 03:28:16;;;;;;;17.65;13.98;;;11.00;99.90;;;;;;4996975;28;20232;-78
2023/04/12 03:31:11;;;;;;;18.20;13.70;;;11.10;99.90;;;;;;5017736;28;20889;-79
2023/04/12 03:34:03;;;;;;;17.60;14.55;;;11.00;99.90;;;;;;5036941;28;20240;-79
2023/04/12 03:36:52;;;;;;;16.92;13.70;;;11.00;99.90;;;;;;5032427;28;20227;-79
2023/04/12 03:39:58;;;;;;;18.85;14.23;;;11.10;99.90;;;;;;5001388;28;20305;-78
2023/04/12 03:42:47;;;;;;;20.45;13.90;;;11.10;99.90;;;;;;5011578;28;20343;-78
2023/04/12 03:45:37;;;;;;;18.58;13.82;;;11.20;99.90;;;;;;5033727;28;20558;-75
2023/04/12 03:48:27;;;;;;;17.90;14.00;;;11.20;99.90;;;;;;5028464;28;20240;-75
2023/04/12 03:51:17;;;;;;;18.90;14.00;;;11.00;99.90;;;;;;5040567;28;20724;-75
2023/04/12 03:54:05;;;;;;;21.75;15.68;;;11.10;99.90;;;;;;5024049;28;20368;-75
2023/04/12 03:57:04;;;;;;;21.25;15.10;;;11.00;99.90;;;;;;5036433;28;20260;-76
2023/04/12 04:00:08;;;;;;;20.05;15.55;;;10.80;99.90;;;;;;5017109;28;20232;-76
2023/04/12 04:03:25;;;;;;;20.50;16.05;;;11.00;99.90;;;;;;5027933;28;20696;-75
2023/04/12 04:06:28;;;;;;;21.42;15.85;;;11.10;99.90;;;;;;5021227;28;20224;-74
2023/04/12 04:09:17;;;;;;;18.00;14.98;;;11.20;99.90;;;;;;5022788;28;20288;-74
2023/04/12 04:12:06;;;;;;;19.63;15.88;;;11.20;99.90;;;;;;5028335;28;20760;-80
2023/04/12 04:14:58;;;;;;;21.85;16.80;;;11.10;99.90;;;;;;5009113;28;20229;-80
2023/04/12 04:17:52;;;;;;;23.65;16.30;;;11.10;99.90;;;;;;4997853;28;20226;-78
2023/04/12 04:20:42;;;;;;;22.52;16.13;;;11.10;99.90;;;;;;5014861;28;20233;-79
2023/04/12 04:23:37;;;;;;;21.13;16.85;;;11.20;99.90;;;;;;5004107;28;20221;-79
2023/04/12 04:26:31;;;;;;;24.63;16.40;;;11.00;99.90;;;;;;5035116;28;20236;-77
2023/04/12 04:29:28;;;;;;;20.67;16.65;;;11.00;99.90;;;;;;5051827;28;20230;-77
2023/04/12 04:32:18;;;;;;;20.38;17.17;;;10.90;99.90;;;;;;5035299;28;20596;-79
2023/04/12 04:35:08;;;;;;;23.45;16.90;;;10.90;99.90;;;;;;5039689;28;20231;-79
2023/04/12 04:38:14;;;;;;;19.58;16.30;;;10.90;99.90;;;;;;5017209;28;20739;-79
2023/04/12 04:41:04;;;;;;;23.58;17.05;;;11.10;99.90;;;;;;5032212;28;20227;-78
2023/04/12 04:44:09;;;;;;;22.30;17.20;;;11.10;99.90;;;;;;5012334;28;20237;-79
2023/04/12 04:47:05;;;;;;;27.05;19.00;;;11.30;99.90;;;;;;5024205;28;20263;-78
2023/04/12 04:49:55;;;;;;;24.65;18.50;;;11.10;99.90;;;;;;5025135;28;20240;-78
2023/04/12 04:52:47;;;;;;;22.25;18.10;;;11.00;99.90;;;;;;5025743;28;20249;-80
2023/04/12 04:55:37;;;;;;;25.95;17.42;;;11.00;99.90;;;;;;5021368;28;20232;-82
2023/04/12 04:58:27;;;;;;;22.50;17.67;;;10.90;99.90;;;;;;5018715;28;20719;-80
2023/04/12 05:01:16;;;;;;;24.98;18.77;;;11.00;99.90;;;;;;5022821;28;20224;-86
2023/04/12 05:04:08;;;;;;;27.48;18.60;;;11.00;99.90;;;;;;5015476;28;20360;-84
2023/04/12 05:06:57;;;;;;;23.60;18.25;;;11.10;99.90;;;;;;5019288;28;20255;-84
2023/04/12 05:09:47;;;;;;;29.50;19.00;;;11.20;99.90;;;;;;5018785;28;20319;-83
2023/04/12 05:12:38;;;;;;;23.08;17.75;;;11.20;99.90;;;;;;5007865;28;20230;-83
2023/04/12 05:15:30;;;;;;;25.42;18.70;;;11.10;99.90;;;;;;5027544;28;20336;-81
2023/04/12 05:18:20;;;;;;;25.85;18.92;;;11.10;99.90;;;;;;5019406;28;20224;-83
2023/04/12 05:21:11;;;;;;;28.27;18.42;;;11.20;99.90;;;;;;5005794;28;20311;-82
2023/04/12 05:24:01;;;;;;;25.58;18.98;;;11.30;99.90;;;;;;5017641;28;20614;-83
2023/04/12 05:26:52;;;;;;;27.17;19.92;;;11.20;99.90;;;;;;5024827;28;20275;-82
2023/04/12 05:29:42;;;;;;;32.45;22.30;;;11.30;99.90;;;;;;5018963;28;20228;-82
2023/04/12 05:32:32;;;;;;;31.15;21.98;;;11.30;99.90;;;;;;5017140;28;20308;-81
2023/04/12 05:35:20;;;;;;;30.33;22.00;;;11.30;99.90;;;;;;5013864;28;20693;-82
2023/04/12 05:38:13;;;;;;;31.05;22.35;;;11.40;99.90;;;;;;5026845;28;20222;-81
2023/04/12 05:41:05;;;;;;;34.08;21.80;;;11.30;99.90;;;;;;5037556;28;20214;-81
2023/04/12 05:43:58;;;;;;;34.10;22.33;;;11.60;99.90;;;;;;5038733;28;20224;-79
2023/04/12 05:46:48;;;;;;;28.88;21.08;;;11.50;99.90;;;;;;5028916;28;20214;-82
2023/04/12 05:49:37;;;;;;;29.52;20.98;;;11.60;99.90;;;;;;5038677;28;20421;-83
2023/04/12 05:52:29;;;;;;;26.13;20.55;;;11.50;99.90;;;;;;5031660;28;20232;-76
2023/04/12 05:55:18;;;;;;;30.13;19.35;;;11.50;99.90;;;;;;5019870;28;20233;-77
2023/04/12 05:58:07;;;;;;;26.60;19.45;;;11.40;99.90;;;;;;5041299;28;20302;-80
2023/04/12 06:00:56;;;;;;;30.38;21.58;;;11.40;99.90;;;;;;5025252;28;20216;-82
2023/04/12 06:03:48;;;;;;;29.25;20.65;;;11.40;99.90;;;;;;5035526;28;20239;-85
2023/04/12 06:06:37;;;;;;;27.10;19.83;;;11.50;99.90;;;;;;5038312;28;20335;-83
2023/04/12 06:09:26;;;;;;;30.63;21.00;;;11.50;99.90;;;;;;5016174;28;20255;-86
2023/04/12 06:12:15;;;;;;;31.33;19.77;;;11.50;99.90;;;;;;5025765;28;20228;-84
2023/04/12 06:15:06;;;;;;;28.10;20.08;;;11.50;99.90;;;;;;5036847;28;20712;-82
2023/04/12 06:17:57;;;;;;;25.95;20.38;;;11.50;99.90;;;;;;5028149;28;20227;-84
2023/04/12 06:20:47;;;;;;;27.33;20.70;;;11.40;99.90;;;;;;5032222;28;21065;-76
2023/04/12 06:23:36;;;;;;;28.80;20.17;;;11.40;99.90;;;;;;5028246;28;20229;-77
2023/04/12 06:26:25;;;;;;;27.40;20.55;;;11.30;99.90;;;;;;5019393;28;21032;-80
2023/04/12 06:29:16;;;;;;;27.55;20.67;;;11.30;99.90;;;;;;5014733;28;20238;-80
2023/04/12 06:32:06;;;;;;;27.80;19.48;;;11.40;99.90;;;;;;5032442;28;20237;-83
2023/04/12 06:34:56;;;;;;;27.23;19.65;;;11.40;99.90;;;;;;5029712;28;20232;-78
2023/04/12 06:37:46;;;;;;;29.90;20.10;;;11.50;99.90;;;;;;5015593;28;20562;-78
2023/04/12 06:40:35;;;;;;;28.45;19.55;;;11.50;99.90;;;;;;5023638;28;20407;-78
2023/04/12 06:43:24;;;;;;;27.02;19.90;;;11.60;99.90;;;;;;5023176;28;20298;-78
2023/04/12 06:46:14;;;;;;;29.17;20.25;;;11.60;99.90;;;;;;5028339;28;20630;-78
2023/04/12 06:49:03;;;;;;;30.35;20.63;;;11.50;99.90;;;;;;5028904;28;20778;-77
2023/04/12 06:51:51;;;;;;;30.23;21.13;;;11.60;99.90;;;;;;5032548;28;20706;-79
2023/04/12 06:54:42;;;;;;;27.08;19.88;;;11.60;99.90;;;;;;5024355;28;20236;-78
2023/04/12 06:57:31;;;;;;;26.50;19.67;;;11.70;99.90;;;;;;5022745;28;20236;-78
2023/04/12 07:00:21;;;;;;;28.80;20.58;;;11.90;99.90;;;;;;5025109;28;20451;-77
2023/04/12 07:03:10;;;;;;;27.35;19.83;;;12.00;99.90;;;;;;5024246;28;20249;-80
2023/04/12 07:06:01;;;;;;;27.08;20.33;;;12.10;99.90;;;;;;5021983;28;20225;-79
2023/04/12 07:09:05;;;;;;;29.42;20.83;;;12.00;99.90;;;;;;5020233;28;20232;-79
2023/04/12 07:11:55;;;;;;;30.15;20.35;;;11.90;99.90;;;;;;5025515;28;20226;-79
2023/04/12 07:14:44;;;;;;;30.80;21.10;;;11.70;99.90;;;;;;5026127;28;20244;-79
2023/04/12 07:17:32;;;;;;;26.02;20.10;;;11.70;99.90;;;;;;5024128;28;20630;-79
2023/04/12 07:20:21;;;;;;;26.65;20.42;;;11.80;99.90;;;;;;5024801;28;20229;-78
2023/04/12 07:23:10;;;;;;;25.33;19.00;;;11.80;99.90;;;;;;5024945;28;20237;-78
2023/04/12 07:25:59;;;;;;;28.35;20.90;;;11.90;99.90;;;;;;5024244;28;20306;-78
2023/04/12 07:28:50;;;;;;;28.15;20.30;;;11.90;99.90;;;;;;5018072;28;20233;-79
2023/04/12 07:31:39;;;;;;;31.00;20.98;;;11.90;99.90;;;;;;5024701;28;20236;-78
2023/04/12 07:34:28;;;;;;;38.78;27.40;;;11.90;99.90;;;;;;5016832;28;20222;-79
2023/04/12 07:37:17;;;;;;;25.45;19.83;;;12.20;99.90;;;;;;5017800;28;20232;-79
2023/04/12 07:40:08;;;;;;;26.77;18.50;;;12.20;99.90;;;;;;5027479;28;20254;-76
2023/04/12 07:42:56;;;;;;;28.33;19.33;;;12.00;99.90;;;;;;5029024;28;20581;-78
2023/04/12 07:45:47;;;;;;;28.60;17.95;;;12.10;99.90;;;;;;5030825;28;20743;-79
2023/04/12 07:48:36;;;;;;;25.55;19.02;;;12.20;99.90;;;;;;5031432;28;20295;-79
2023/04/12 07:51:28;;;;;;;26.02;19.42;;;12.30;99.90;;;;;;5023082;28;20236;-79
2023/04/12 07:54:17;;;;;;;24.98;19.25;;;12.30;99.90;;;;;;5023997;28;20236;-77
2023/04/12 07:57:07;;;;;;;23.88;17.60;;;12.20;99.90;;;;;;5029788;28;20232;-77
2023/04/12 07:59:56;;;;;;;21.50;17.48;;;12.30;99.90;;;;;;5030843;28;21015;-79
2023/04/12 08:02:46;;;;;;;24.35;18.38;;;12.50;99.90;;;;;;5042294;28;20230;-78
2023/04/12 08:05:35;;;;;;;24.95;18.90;;;12.50;99.90;;;;;;5042512;28;20272;-77
2023/04/12 08:08:24;;;;;;;22.08;18.50;;;12.70;99.90;;;;;;5038566;28;20308;-72
2023/04/12 08:11:13;;;;;;;27.77;18.27;;;12.60;99.90;;;;;;5042115;28;20213;-83
2023/04/12 08:14:03;;;;;;;28.42;18.40;;;12.70;99.90;;;;;;5039735;28;20229;-88
2023/04/12 08:16:51;;;;;;;24.20;18.67;;;12.60;99.90;;;;;;5041304;28;20239;-79
2023/04/12 08:19:42;;;;;;;25.38;19.02;;;12.50;99.90;;;;;;5041825;28;20237;-75
2023/04/12 08:22:31;;;;;;;27.98;18.48;;;12.50;99.90;;;;;;5020544;28;20274;-82
2023/04/12 08:25:20;;;;;;;23.50;17.85;;;12.50;99.90;;;;;;5023402;28;20233;-76
2023/04/12 08:28:09;;;;;;;24.73;18.08;;;12.40;99.90;;;;;;5018908;28;20317;-84
2023/04/12 08:30:58;;;;;;;23.90;18.58;;;12.00;99.90;;;;;;5027369;28;20282;-83
2023/04/12 08:33:47;;;;;;;25.25;19.23;;;11.90;99.90;;;;;;5050142;28;20225;-78
2023/04/12 08:36:37;;;;;;;26.30;18.20;;;11.70;99.90;;;;;;5044608;28;20231;-79
2023/04/12 08:39:26;;;;;;;24.15;18.55;;;11.70;99.90;;;;;;5041923;28;20214;-79
2023/04/12 08:42:16;;;;;;;26.63;19.60;;;11.70;99.90;;;;;;5042513;28;20229;-83
2023/04/12 08:45:06;;;;;;;25.23;18.38;;;12.00;99.90;;;;;;5039532;28;20661;-78
2023/04/12 08:47:55;;;;;;;25.73;19.60;;;12.10;99.90;;;;;;5042433;28;20228;-79
2023/04/12 08:50:47;;;;;;;26.13;19.80;;;12.30;99.90;;;;;;5034428;28;20257;-78
2023/04/12 08:53:39;;;;;;;26.05;19.08;;;12.70;99.90;;;;;;5018098;28;20233;-78
2023/04/12 08:56:29;;;;;;;26.70;19.63;;;12.90;99.90;;;;;;5024556;28;20600;-79
2023/04/12 08:59:18;;;;;;;25.42;19.92;;;13.60;99.90;;;;;;5035676;28;20223;-78
2023/04/12 09:02:07;;;;;;;26.42;18.73;;;13.70;99.90;;;;;;5026913;28;20692;-77
2023/04/12 09:04:57;;;;;;;25.42;18.38;;;14.00;99.90;;;;;;5038748;28;20323;-80
2023/04/12 09:07:46;;;;;;;26.90;18.63;;;13.70;99.90;;;;;;5026302;28;20335;-78
2023/04/12 09:10:38;;;;;;;25.55;18.55;;;13.60;99.90;;;;;;5026937;28;20802;-76
2023/04/12 09:13:34;;;;;;;24.75;18.75;;;13.30;99.90;;;;;;5023954;28;20696;-78
2023/04/12 09:16:44;;;;;;;22.73;18.63;;;13.40;99.90;;;;;;5040381;28;20214;-75
2023/04/12 09:19:34;;;;;;;24.42;18.80;;;13.50;99.90;;;;;;5042470;28;20715;-76
2023/04/12 09:22:34;;;;;;;23.05;17.95;;;13.50;99.90;;;;;;5026619;28;20231;-81
2023/04/12 09:25:44;;;;;;;24.85;18.85;;;13.30;99.90;;;;;;5030691;28;20236;-79
2023/04/12 09:28:33;;;;;;;22.23;18.10;;;13.30;99.90;;;;;;5038099;28;20960;-73
2023/04/12 09:31:22;;;;;;;25.48;18.75;;;13.10;99.90;;;;;;5041131;28;20223;-78
2023/04/12 09:34:11;;;;;;;25.83;19.23;;;13.10;99.90;;;;;;5036427;28;20232;-79
2023/04/12 09:37:00;;;;;;;31.10;20.65;;;13.00;99.90;;;;;;5038197;28;20237;-75
2023/04/12 09:40:00;;;;;;;31.98;21.83;;;13.00;99.90;;;;;;5032787;28;20227;-76
2023/04/12 09:42:53;;;;;;;26.27;19.58;;;13.30;99.90;;;;;;5030431;28;20319;-73
2023/04/12 09:45:42;;;;;;;26.83;19.30;;;13.40;99.90;;;;;;5021107;28;20768;-79
2023/04/12 09:48:32;;;;;;;25.05;19.75;;;13.70;99.90;;;;;;5014573;28;20232;-79
2023/04/12 09:51:28;;;;;;;28.10;19.27;;;13.80;99.90;;;;;;5040885;28;20224;-77
2023/04/12 09:54:17;;;;;;;26.50;18.23;;;14.00;99.90;;;;;;5035378;28;20332;-78
2023/04/12 09:57:08;;;;;;;27.50;17.83;;;14.10;99.90;;;;;;5034879;28;20228;-78
2023/04/12 10:00:04;;;;;;;22.15;18.40;;;14.20;99.90;;;;;;5013085;28;20230;-78
2023/04/12 10:02:58;;;;;;;27.63;19.38;;;14.50;99.90;;;;;;5030581;28;20216;-80
2023/04/12 10:05:48;;;;;;;28.30;19.40;;;13.90;99.90;;;;;;5015874;28;20259;-76
2023/04/12 10:08:37;;;;;;;23.55;19.08;;;13.70;99.90;;;;;;5042306;28;20217;-77
2023/04/12 10:11:28;;;;;;;26.85;18.55;;;14.20;99.90;;;;;;5023964;28;20896;-78
2023/04/12 10:14:18;;;;;;;24.08;18.70;;;14.90;99.90;;;;;;5023188;28;20256;-78
2023/04/12 10:17:10;;;;;;;26.60;19.83;;;14.90;99.90;;;;;;5040433;28;20279;-80
2023/04/12 10:20:00;;;;;;;24.95;18.52;;;14.50;99.90;;;;;;5028694;28;20612;-78
2023/04/12 10:22:50;;;;;;;24.38;18.35;;;14.40;99.90;;;;;;5006769;28;20236;-77
2023/04/12 10:25:46;;;;;;;23.75;18.10;;;14.50;99.90;;;;;;5003355;28;20234;-78
2023/04/12 10:28:35;;;;;;;23.25;18.02;;;14.70;99.90;;;;;;5018899;28;20221;-79
2023/04/12 10:31:28;;;;;;;20.95;17.23;;;14.40;99.90;;;;;;5021037;28;20227;-78
2023/04/12 10:34:24;;;;;;;23.80;17.50;;;14.50;99.90;;;;;;5038499;28;20698;-81
2023/04/12 10:37:13;;;;;;;22.80;17.73;;;14.60;99.90;;;;;;5034047;28;20729;-75
2023/04/12 10:40:03;;;;;;;23.45;17.38;;;14.70;99.90;;;;;;5037481;28;20217;-83
2023/04/12 10:43:26;;;;;;;22.60;17.30;;;14.60;99.90;;;;;;5012900;28;20256;-74
2023/04/12 10:46:52;;;;;;;22.60;16.58;;;14.60;99.90;;;;;;5015550;28;20244;-84
2023/04/12 10:50:20;;;;;;;21.45;15.93;;;14.70;99.90;;;;;;5024312;28;20335;-74
2023/04/12 10:53:23;;;;;;;19.38;16.48;;;14.80;99.90;;;;;;5039457;28;20225;-80
2023/04/12 10:56:35;;;;;;;21.77;15.65;;;14.70;99.90;;;;;;5035168;28;20676;-79
2023/04/12 10:59:24;;;;;;;18.45;15.05;;;14.40;99.90;;;;;;5020981;28;20233;-78
2023/04/12 11:02:25;;;;;;;20.17;15.27;;;14.70;99.90;;;;;;5033734;28;20273;-78
2023/04/12 11:05:19;;;;;;;19.95;15.45;;;14.80;99.90;;;;;;5029392;28;20226;-78
2023/04/12 11:08:11;;;;;;;20.25;16.23;;;14.40;99.90;;;;;;5035347;28;20229;-78
2023/04/12 11:11:18;;;;;;;18.45;15.07;;;14.50;99.90;;;;;;5033680;28;20647;-78
2023/04/12 11:14:10;;;;;;;23.23;15.43;;;15.30;99.90;;;;;;5035928;28;20225;-78
2023/04/12 11:17:21;;;;;;;23.30;16.13;;;15.80;99.90;;;;;;5027041;28;20713;-78
2023/04/12 11:20:12;;;;;;;21.42;15.55;;;16.10;99.90;;;;;;5038908;28;20220;-78
2023/04/12 11:23:04;;;;;;;20.75;16.02;;;16.30;99.90;;;;;;5048151;28;20869;-78
2023/04/12 11:25:53;;;;;;;20.58;16.20;;;16.10;99.90;;;;;;5011538;28;20673;-79
2023/04/12 11:28:42;;;;;;;21.00;15.48;;;15.90;99.90;;;;;;4988442;28;20365;-78
2023/04/12 11:31:31;;;;;;;19.50;15.63;;;16.30;99.90;;;;;;5006145;28;20598;-79
2023/04/12 11:34:20;;;;;;;20.92;16.15;;;16.50;99.90;;;;;;5007721;28;20238;-78
2023/04/12 11:37:10;;;;;;;19.90;14.68;;;16.50;99.90;;;;;;5002917;28;20219;-78
2023/04/12 11:40:00;;;;;;;18.75;14.98;;;16.20;99.90;;;;;;5007845;28;20230;-78
2023/04/12 11:42:49;;;;;;;17.63;15.05;;;15.90;99.90;;;;;;5006229;28;20233;-78
2023/04/12 11:45:38;;;;;;;17.20;15.40;;;16.00;99.90;;;;;;5007504;28;20253;-78
2023/04/12 11:48:28;;;;;;;17.85;15.43;;;17.10;99.90;;;;;;5009041;28;20686;-78
2023/04/12 11:51:23;;;;;;;17.08;14.65;;;17.00;99.90;;;;;;5002569;28;20226;-79
2023/04/12 11:54:13;;;;;;;19.15;14.95;;;16.60;99.90;;;;;;5007729;28;20233;-77
2023/04/12 11:57:04;;;;;;;16.83;14.45;;;16.10;99.90;;;;;;5000544;28;20219;-78
2023/04/12 11:59:54;;;;;;;17.67;14.18;;;15.90;99.90;;;;;;5000923;28;20297;-79
2023/04/12 12:02:43;;;;;;;16.20;14.05;;;15.90;99.90;;;;;;5006215;28;20222;-79
2023/04/12 12:05:52;;;;;;;19.70;15.07;;;15.80;99.90;;;;;;5004844;28;20222;-79
2023/04/12 12:08:41;;;;;;;17.50;13.93;;;15.40;99.90;;;;;;5000760;28;20345;-79
2023/04/12 12:11:31;;;;;;;19.27;15.05;;;15.50;99.90;;;;;;5007021;28;20238;-78
2023/04/12 12:14:23;;;;;;;18.90;14.30;;;15.60;99.90;;;;;;5010963;28;20237;-79
2023/04/12 12:17:14;;;;;;;17.50;14.25;;;15.60;99.90;;;;;;5008005;28;20226;-79
2023/04/12 12:20:03;;;;;;;17.33;15.15;;;15.60;99.90;;;;;;5009458;28;20234;-79
2023/04/12 12:22:52;;;;;;;17.80;14.02;;;15.40;99.90;;;;;;5010440;28;20233;-78
2023/04/12 12:25:46;;;;;;;17.98;13.88;;;15.40;99.90;;;;;;5016438;28;20230;-78
2023/04/12 12:28:37;;;;;;;19.70;14.38;;;15.40;99.90;;;;;;5016591;28;20301;-79
2023/04/12 12:31:28;;;;;;;19.02;14.68;;;15.50;99.90;;;;;;5025703;28;20597;-79
2023/04/12 12:34:18;;;;;;;16.20;13.82;;;15.60;99.90;;;;;;5021901;28;20224;-79
2023/04/12 12:37:13;;;;;;;15.13;13.52;;;15.60;99.90;;;;;;5016024;28;20230;-79
2023/04/12 12:40:12;;;;;;;16.63;13.88;;;15.30;99.90;;;;;;5019760;28;20221;-79
2023/04/12 12:43:01;;;;;;;17.88;13.63;;;15.30;99.90;;;;;;5028000;28;20229;-79
2023/04/12 12:45:50;;;;;;;18.50;13.40;;;15.20;99.90;;;;;;5027592;28;20235;-79
2023/04/12 12:48:41;;;;;;;14.98;12.57;;;15.00;99.90;;;;;;5029328;28;20222;-79
2023/04/12 12:51:30;;;;;;;17.20;13.57;;;15.10;99.90;;;;;;5024365;28;20276;-78
2023/04/12 12:54:19;;;;;;;15.80;13.00;;;15.20;99.90;;;;;;5022264;28;20253;-79
2023/04/12 12:57:26;;;;;;;21.10;13.95;;;15.40;99.90;;;;;;5012230;28;21002;-77
2023/04/12 13:00:16;;;;;;;16.35;13.63;;;15.50;99.90;;;;;;5018617;28;20313;-79
2023/04/12 13:03:06;;;;;;;19.05;12.90;;;15.50;99.90;;;;;;5027305;28;20300;-78
2023/04/12 13:05:57;;;;;;;19.30;13.80;;;15.60;99.90;;;;;;5022626;28;20234;-79
2023/04/12 13:08:46;;;;;;;19.00;13.30;;;15.70;99.90;;;;;;5023600;28;20251;-79
2023/04/12 13:11:35;;;;;;;18.50;13.40;;;16.00;99.90;;;;;;5026582;28;20225;-78
2023/04/12 13:14:24;;;;;;;15.52;13.75;;;16.00;99.90;;;;;;5034690;28;20228;-77
2023/04/12 13:17:12;;;;;;;17.92;13.82;;;15.80;99.90;;;;;;5044406;28;20237;-79
2023/04/12 13:20:03;;;;;;;14.68;12.43;;;15.50;99.90;;;;;;5026201;28;20236;-77
2023/04/12 13:22:53;;;;;;;18.48;12.70;;;15.30;99.90;;;;;;5034705;28;20229;-78
2023/04/12 13:25:42;;;;;;;15.25;12.32;;;15.30;99.90;;;;;;5016601;28;20234;-80
2023/04/12 13:28:31;;;;;;;13.57;11.82;;;15.20;99.90;;;;;;5025421;28;20223;-79
2023/04/12 13:31:20;;;;;;;14.30;11.40;;;15.10;99.90;;;;;;5025532;28;20249;-79
2023/04/12 13:34:09;;;;;;;18.90;12.25;;;15.10;99.90;;;;;;5035969;28;20227;-78
2023/04/12 13:36:58;;;;;;;17.70;11.73;;;15.20;99.90;;;;;;5029733;28;20225;-79
2023/04/12 13:39:51;;;;;;;15.85;12.68;;;15.20;99.90;;;;;;5017403;28;20766;-78
2023/04/12 13:42:40;;;;;;;14.05;11.68;;;15.20;99.90;;;;;;5012216;28;20225;-79
2023/04/12 13:45:29;;;;;;;16.52;12.27;;;15.30;99.90;;;;;;5023081;28;20377;-79
2023/04/12 13:48:22;;;;;;;13.05;11.55;;;15.10;99.90;;;;;;5027861;28;20260;-77
2023/04/12 13:51:11;;;;;;;15.68;11.77;;;15.10;99.90;;;;;;5026679;28;20229;-79
2023/04/12 13:54:01;;;;;;;14.93;11.68;;;15.00;99.90;;;;;;5028286;28;20236;-79
2023/04/12 13:56:51;;;;;;;15.50;11.23;;;15.00;99.90;;;;;;5016063;28;20313;-79
2023/04/12 13:59:40;;;;;;;14.50;11.32;;;15.10;99.90;;;;;;5027497;28;20233;-78
2023/04/12 14:02:29;;;;;;;14.80;11.13;;;15.10;99.90;;;;;;5032613;28;20320;-78
2023/04/12 14:05:19;;;;;;;14.57;11.45;;;15.00;99.90;;;;;;5023709;28;20226;-80
2023/04/12 14:08:08;;;;;;;16.00;12.30;;;15.00;99.90;;;;;;5032403;28;20245;-77
2023/04/12 14:10:57;;;;;;;14.82;11.65;;;15.10;99.90;;;;;;5019602;28;20558;-77
2023/04/12 14:13:47;;;;;;;13.93;12.07;;;15.20;99.90;;;;;;5009116;28;20249;-78
2023/04/12 14:16:36;;;;;;;17.33;12.85;;;15.10;99.90;;;;;;5032949;28;20217;-80
2023/04/12 14:19:25;;;;;;;15.85;13.52;;;15.00;99.90;;;;;;5028020;28;20221;-79
2023/04/12 14:22:14;;;;;;;15.32;12.93;;;15.20;99.90;;;;;;5030604;28;20225;-79
2023/04/12 14:25:03;;;;;;;13.73;12.20;;;15.00;99.90;;;;;;5036035;28;20236;-80
2023/04/12 14:27:51;;;;;;;20.02;11.93;;;15.10;99.90;;;;;;5032772;28;20220;-78
2023/04/12 14:30:42;;;;;;;15.70;13.18;;;15.10;99.90;;;;;;5027201;28;20260;-79
2023/04/12 14:33:31;;;;;;;17.98;13.25;;;15.30;99.90;;;;;;5025506;28;20342;-79